sensor_id;sensor_type;location;lat;lon;timestamp;pressure;altitude;pressure_sealevel;temperature;humidity
77240;BME280;66258;53.170;-2.240;2023-11-21T00:01:37;100506.41;;;19.47;100.00
77240;BME280;66258;53.170;-2.240;2023-11-21T00:04:05;100511.38;;;19.26;100.00
77240;BME280;66258;53.170;-2.240;2023-11-21T00:06:32;100506.72;;;19.26;100.00
77240;BME280;66258;53.170;-2.240;2023-11-21T00:08:59;100505.59;;;19.34;100.00
77240;BME280;66258;53.170;-2.240;2023-11-21T00:11:28;100512.78;;;19.35;100.00
77240;BME280;66258;53.170;-2.240;2023-11-21T00:13:56;100515.19;;;19.25;100.00
77240;BME280;66258;53.170;-2.240;2023-11-21T00:16:24;100522.78;;;19.22;100.00
77240;BME280;66258;53.170;-2.240;2023-11-21T00:18:52;100526.50;;;19.41;100.00
77240;BME280;66258;53.170;-2.240;2023-11-21T00:21:19;100524.59;;;19.42;100.00
77240;BME280;66258;53.170;-2.240;2023-11-21T00:23:46;100533.47;;;19.37;100.00
77240;BME280;66258;53.170;-2.240;2023-11-21T00:26:20;100541.78;;;19.24;100.00
77240;BME280;66258;53.170;-2.240;2023-11-21T00:28:49;100545.09;;;18.88;100.00
77240;BME280;66258;53.170;-2.240;2023-11-21T00:31:17;100556.69;;;18.90;100.00
77240;BME280;66258;53.170;-2.240;2023-11-21T00:33:44;100555.09;;;19.14;100.00
77240;BME280;66258;53.170;-2.240;2023-11-21T00:36:15;100557.41;;;19.23;100.00
77240;BME280;66258;53.170;-2.240;2023-11-21T00:38:42;100556.09;;;19.33;100.00
77240;BME280;66258;53.170;-2.240;2023-11-21T00:41:10;100553.69;;;19.49;100.00
77240;BME280;66258;53.170;-2.240;2023-11-21T00:43:37;100581.41;;;19.41;100.00
77240;BME280;66258;53.170;-2.240;2023-11-21T00:46:07;100574.00;;;19.42;100.00
77240;BME280;66258;53.170;-2.240;2023-11-21T00:48:34;100575.16;;;19.14;100.00
77240;BME280;66258;53.170;-2.240;2023-11-21T00:51:01;100572.69;;;18.93;100.00
77240;BME280;66258;53.170;-2.240;2023-11-21T00:53:30;100581.81;;;18.87;100.00
77240;BME280;66258;53.170;-2.240;2023-11-21T00:55:58;100588.56;;;18.71;100.00
77240;BME280;66258;53.170;-2.240;2023-11-21T00:58:25;100591.09;;;18.73;100.00
77240;BME280;66258;53.170;-2.240;2023-11-21T01:00:53;100592.34;;;18.83;100.00
77240;BME280;66258;53.170;-2.240;2023-11-21T01:03:22;100594.88;;;18.59;100.00
77240;BME280;66258;53.170;-2.240;2023-11-21T01:05:49;100613.25;;;18.65;100.00
77240;BME280;66258;53.170;-2.240;2023-11-21T01:08:17;100615.16;;;18.64;100.00
77240;BME280;66258;53.170;-2.240;2023-11-21T01:10:44;100627.97;;;19.10;100.00
77240;BME280;66258;53.170;-2.240;2023-11-21T01:13:12;100628.75;;;19.23;100.00
77240;BME280;66258;53.170;-2.240;2023-11-21T01:15:40;100642.31;;;19.12;100.00
77240;BME280;66258;53.170;-2.240;2023-11-21T01:18:07;100643.75;;;19.21;100.00
77240;BME280;66258;53.170;-2.240;2023-11-21T01:20:41;100656.84;;;19.12;100.00
77240;BME280;66258;53.170;-2.240;2023-11-21T01:23:09;100661.06;;;19.21;99.92
77240;BME280;66258;53.170;-2.240;2023-11-21T01:25:37;100655.63;;;18.95;99.70
77240;BME280;66258;53.170;-2.240;2023-11-21T01:28:05;100664.69;;;19.02;100.00
77240;BME280;66258;53.170;-2.240;2023-11-21T01:30:33;100665.50;;;19.16;99.29
77240;BME280;66258;53.170;-2.240;2023-11-21T01:33:01;100660.06;;;18.96;98.88
77240;BME280;66258;53.170;-2.240;2023-11-21T01:35:31;100667.44;;;18.49;99.63
77240;BME280;66258;53.170;-2.240;2023-11-21T01:38:03;100672.91;;;18.56;99.44
77240;BME280;66258;53.170;-2.240;2023-11-21T01:40:30;100664.63;;;18.10;98.87
77240;BME280;66258;53.170;-2.240;2023-11-21T01:42:58;100664.66;;;18.23;98.80
77240;BME280;66258;53.170;-2.240;2023-11-21T01:45:25;100668.50;;;18.75;96.20
77240;BME280;66258;53.170;-2.240;2023-11-21T01:47:52;100667.44;;;18.49;96.25
77240;BME280;66258;53.170;-2.240;2023-11-21T01:50:22;100667.41;;;18.30;95.93
77240;BME280;66258;53.170;-2.240;2023-11-21T01:52:50;100661.47;;;18.13;95.22
77240;BME280;66258;53.170;-2.240;2023-11-21T01:55:20;100661.25;;;18.01;96.22
77240;BME280;66258;53.170;-2.240;2023-11-21T01:57:55;100679.38;;;18.09;96.01
77240;BME280;66258;53.170;-2.240;2023-11-21T02:00:22;100694.25;;;18.61;93.93
77240;BME280;66258;53.170;-2.240;2023-11-21T02:02:49;100696.78;;;18.95;93.46
77240;BME280;66258;53.170;-2.240;2023-11-21T02:05:18;100693.84;;;18.64;94.64
77240;BME280;66258;53.170;-2.240;2023-11-21T02:07:46;100694.91;;;18.82;94.36
77240;BME280;66258;53.170;-2.240;2023-11-21T02:10:14;100693.16;;;18.29;95.92
77240;BME280;66258;53.170;-2.240;2023-11-21T02:12:44;100695.47;;;18.58;95.27
77240;BME280;66258;53.170;-2.240;2023-11-21T02:15:12;100699.91;;;18.46;94.35
77240;BME280;66258;53.170;-2.240;2023-11-21T02:17:40;100704.91;;;18.29;94.91
77240;BME280;66258;53.170;-2.240;2023-11-21T02:20:09;100697.53;;;18.16;95.14
77240;BME280;66258;53.170;-2.240;2023-11-21T02:22:38;100692.81;;;17.91;95.67
77240;BME280;66258;53.170;-2.240;2023-11-21T02:25:09;100697.53;;;18.30;93.46
77240;BME280;66258;53.170;-2.240;2023-11-21T02:27:39;100693.94;;;18.16;92.87
77240;BME280;66258;53.170;-2.240;2023-11-21T02:30:07;100707.44;;;18.31;92.58
77240;BME280;66258;53.170;-2.240;2023-11-21T02:32:35;100707.03;;;18.34;91.99
77240;BME280;66258;53.170;-2.240;2023-11-21T02:35:15;100716.25;;;18.13;93.23
77240;BME280;66258;53.170;-2.240;2023-11-21T02:37:42;100721.16;;;18.31;92.73
77240;BME280;66258;53.170;-2.240;2023-11-21T02:40:11;100724.00;;;18.64;91.70
77240;BME280;66258;53.170;-2.240;2023-11-21T02:42:39;100730.53;;;18.63;91.09
77240;BME280;66258;53.170;-2.240;2023-11-21T02:45:08;100741.09;;;18.85;90.92
77240;BME280;66258;53.170;-2.240;2023-11-21T02:47:35;100747.84;;;19.03;90.74
77240;BME280;66258;53.170;-2.240;2023-11-21T02:50:03;100747.03;;;19.09;90.97
77240;BME280;66258;53.170;-2.240;2023-11-21T02:52:31;100744.28;;;19.02;92.11
77240;BME280;66258;53.170;-2.240;2023-11-21T02:54:59;100758.63;;;18.91;92.81
77240;BME280;66258;53.170;-2.240;2023-11-21T02:57:28;100758.19;;;18.94;93.97
77240;BME280;66258;53.170;-2.240;2023-11-21T02:59:55;100763.25;;;19.17;93.54
77240;BME280;66258;53.170;-2.240;2023-11-21T03:02:23;100766.00;;;18.97;94.41
77240;BME280;66258;53.170;-2.240;2023-11-21T03:04:51;100766.03;;;19.10;93.95
77240;BME280;66258;53.170;-2.240;2023-11-21T03:07:18;100781.63;;;19.03;94.75
77240;BME280;66258;53.170;-2.240;2023-11-21T03:09:46;100776.34;;;19.02;95.05
77240;BME280;66258;53.170;-2.240;2023-11-21T03:12:16;100773.19;;;18.98;95.41
77240;BME280;66258;53.170;-2.240;2023-11-21T03:14:45;100776.53;;;18.67;96.27
77240;BME280;66258;53.170;-2.240;2023-11-21T03:17:13;100772.09;;;18.93;95.34
77240;BME280;66258;53.170;-2.240;2023-11-21T03:19:42;100773.38;;;18.77;95.78
77240;BME280;66258;53.170;-2.240;2023-11-21T03:22:10;100770.41;;;18.72;96.23
77240;BME280;66258;53.170;-2.240;2023-11-21T03:24:37;100768.94;;;18.76;96.07
77240;BME280;66258;53.170;-2.240;2023-11-21T03:27:05;100771.63;;;18.49;96.39
77240;BME280;66258;53.170;-2.240;2023-11-21T03:29:33;100779.84;;;18.56;96.32
77240;BME280;66258;53.170;-2.240;2023-11-21T03:32:02;100768.53;;;18.66;96.27
77240;BME280;66258;53.170;-2.240;2023-11-21T03:34:30;100777.94;;;18.57;96.14
77240;BME280;66258;53.170;-2.240;2023-11-21T03:36:57;100785.19;;;18.64;96.22
77240;BME280;66258;53.170;-2.240;2023-11-21T03:39:25;100799.53;;;18.73;95.94
77240;BME280;66258;53.170;-2.240;2023-11-21T03:41:53;100804.38;;;18.77;95.40
77240;BME280;66258;53.170;-2.240;2023-11-21T03:44:21;100812.00;;;18.82;95.29
77240;BME280;66258;53.170;-2.240;2023-11-21T03:46:48;100815.81;;;18.87;94.22
77240;BME280;66258;53.170;-2.240;2023-11-21T03:49:18;100815.78;;;18.74;94.66
77240;BME280;66258;53.170;-2.240;2023-11-21T03:51:46;100819.66;;;18.39;94.04
77240;BME280;66258;53.170;-2.240;2023-11-21T03:54:13;100818.38;;;18.28;95.81
77240;BME280;66258;53.170;-2.240;2023-11-21T03:56:41;100819.00;;;18.37;94.91
77240;BME280;66258;53.170;-2.240;2023-11-21T03:59:09;100824.09;;;18.40;94.95
77240;BME280;66258;53.170;-2.240;2023-11-21T04:01:37;100810.63;;;17.97;96.38
77240;BME280;66258;53.170;-2.240;2023-11-21T04:04:07;100816.16;;;18.04;96.68
77240;BME280;66258;53.170;-2.240;2023-11-21T04:06:36;100821.75;;;18.37;94.67
77240;BME280;66258;53.170;-2.240;2023-11-21T04:09:04;100827.84;;;18.26;94.65
77240;BME280;66258;53.170;-2.240;2023-11-21T04:11:32;100836.91;;;18.26;94.60
77240;BME280;66258;53.170;-2.240;2023-11-21T04:13:59;100843.72;;;18.43;93.48
77240;BME280;66258;53.170;-2.240;2023-11-21T04:16:27;100834.38;;;17.83;94.17
77240;BME280;66258;53.170;-2.240;2023-11-21T04:18:55;100838.03;;;17.69;96.10
77240;BME280;66258;53.170;-2.240;2023-11-21T04:21:23;100845.25;;;18.11;94.74
77240;BME280;66258;53.170;-2.240;2023-11-21T04:23:51;100851.03;;;17.89;94.40
77240;BME280;66258;53.170;-2.240;2023-11-21T04:26:19;100853.00;;;18.01;93.99
77240;BME280;66258;53.170;-2.240;2023-11-21T04:28:46;100851.47;;;18.33;93.29
77240;BME280;66258;53.170;-2.240;2023-11-21T04:31:14;100859.75;;;18.46;92.21
77240;BME280;66258;53.170;-2.240;2023-11-21T04:33:41;100866.53;;;18.09;92.98
77240;BME280;66258;53.170;-2.240;2023-11-21T04:36:09;100873.53;;;18.18;93.34
77240;BME280;66258;53.170;-2.240;2023-11-21T04:38:37;100876.94;;;18.20;92.49
77240;BME280;66258;53.170;-2.240;2023-11-21T04:41:07;100882.25;;;18.29;92.75
77240;BME280;66258;53.170;-2.240;2023-11-21T04:43:35;100887.84;;;18.14;92.75
77240;BME280;66258;53.170;-2.240;2023-11-21T04:46:02;100894.81;;;18.16;92.37
77240;BME280;66258;53.170;-2.240;2023-11-21T04:48:30;100896.00;;;18.01;93.08
77240;BME280;66258;53.170;-2.240;2023-11-21T04:50:58;100895.09;;;17.94;93.24
77240;BME280;66258;53.170;-2.240;2023-11-21T04:53:26;100893.81;;;18.24;92.60
77240;BME280;66258;53.170;-2.240;2023-11-21T04:55:59;100900.81;;;18.33;91.96
77240;BME280;66258;53.170;-2.240;2023-11-21T04:58:28;100901.94;;;18.11;92.83
77240;BME280;66258;53.170;-2.240;2023-11-21T05:00:57;100914.50;;;18.27;92.31
77240;BME280;66258;53.170;-2.240;2023-11-21T05:03:24;100917.09;;;18.41;91.72
77240;BME280;66258;53.170;-2.240;2023-11-21T05:05:52;100922.41;;;18.15;92.59
77240;BME280;66258;53.170;-2.240;2023-11-21T05:08:20;100928.78;;;18.22;92.97
77240;BME280;66258;53.170;-2.240;2023-11-21T05:10:47;100927.56;;;18.31;91.83
77240;BME280;66258;53.170;-2.240;2023-11-21T05:13:18;100929.44;;;18.24;91.70
77240;BME280;66258;53.170;-2.240;2023-11-21T05:15:47;100940.81;;;17.93;93.25
77240;BME280;66258;53.170;-2.240;2023-11-21T05:18:15;100947.19;;;18.28;92.24
77240;BME280;66258;53.170;-2.240;2023-11-21T05:20:43;100939.72;;;17.88;93.77
77240;BME280;66258;53.170;-2.240;2023-11-21T05:23:11;100946.47;;;17.85;94.70
77240;BME280;66258;53.170;-2.240;2023-11-21T05:25:45;100953.91;;;17.98;94.30
77240;BME280;66258;53.170;-2.240;2023-11-21T05:28:14;100950.97;;;17.71;95.50
77240;BME280;66258;53.170;-2.240;2023-11-21T05:30:46;100948.59;;;17.90;95.20
77240;BME280;66258;53.170;-2.240;2023-11-21T05:33:14;100958.75;;;17.96;94.61
77240;BME280;66258;53.170;-2.240;2023-11-21T05:35:42;100953.63;;;17.86;95.08
77240;BME280;66258;53.170;-2.240;2023-11-21T05:38:10;100957.88;;;17.67;96.55
77240;BME280;66258;53.170;-2.240;2023-11-21T05:40:38;100968.38;;;17.64;96.79
77240;BME280;66258;53.170;-2.240;2023-11-21T05:43:08;100963.78;;;17.64;96.37
77240;BME280;66258;53.170;-2.240;2023-11-21T05:45:36;100972.34;;;17.82;96.32
77240;BME280;66258;53.170;-2.240;2023-11-21T05:48:05;100978.09;;;17.45;98.37
77240;BME280;66258;53.170;-2.240;2023-11-21T05:50:33;100982.44;;;17.18;100.00
77240;BME280;66258;53.170;-2.240;2023-11-21T05:53:01;100983.44;;;16.96;100.00
77240;BME280;66258;53.170;-2.240;2023-11-21T05:55:28;100988.94;;;17.17;100.00
77240;BME280;66258;53.170;-2.240;2023-11-21T05:57:56;100993.50;;;17.31;100.00
77240;BME280;66258;53.170;-2.240;2023-11-21T06:00:25;101002.75;;;17.30;100.00
77240;BME280;66258;53.170;-2.240;2023-11-21T06:02:53;101007.09;;;17.39;100.00
77240;BME280;66258;53.170;-2.240;2023-11-21T06:05:24;101013.88;;;17.43;100.00
77240;BME280;66258;53.170;-2.240;2023-11-21T06:07:54;101014.31;;;17.47;100.00
77240;BME280;66258;53.170;-2.240;2023-11-21T06:10:22;101026.81;;;17.35;100.00
77240;BME280;66258;53.170;-2.240;2023-11-21T06:12:52;101027.81;;;17.48;100.00
77240;BME280;66258;53.170;-2.240;2023-11-21T06:15:19;101025.25;;;17.47;100.00
77240;BME280;66258;53.170;-2.240;2023-11-21T06:17:48;101026.44;;;17.38;100.00
77240;BME280;66258;53.170;-2.240;2023-11-21T06:20:16;101029.06;;;17.10;100.00
77240;BME280;66258;53.170;-2.240;2023-11-21T06:22:47;101030.09;;;17.09;100.00
77240;BME280;66258;53.170;-2.240;2023-11-21T06:25:15;101039.84;;;17.33;100.00
77240;BME280;66258;53.170;-2.240;2023-11-21T06:27:43;101043.63;;;17.32;100.00
77240;BME280;66258;53.170;-2.240;2023-11-21T06:30:11;101049.25;;;17.45;100.00
77240;BME280;66258;53.170;-2.240;2023-11-21T06:32:39;101045.19;;;17.20;100.00
77240;BME280;66258;53.170;-2.240;2023-11-21T06:35:08;101060.16;;;17.60;100.00
77240;BME280;66258;53.170;-2.240;2023-11-21T06:37:38;101057.25;;;17.46;100.00
77240;BME280;66258;53.170;-2.240;2023-11-21T06:40:08;101051.41;;;17.49;100.00
77240;BME280;66258;53.170;-2.240;2023-11-21T06:42:39;101055.50;;;17.39;100.00
77240;BME280;66258;53.170;-2.240;2023-11-21T06:45:08;101061.66;;;17.62;100.00
77240;BME280;66258;53.170;-2.240;2023-11-21T06:47:36;101058.09;;;17.47;100.00
77240;BME280;66258;53.170;-2.240;2023-11-21T06:50:04;101053.03;;;17.44;100.00
77240;BME280;66258;53.170;-2.240;2023-11-21T06:52:32;101051.06;;;17.38;100.00
77240;BME280;66258;53.170;-2.240;2023-11-21T06:55:00;101053.94;;;17.51;100.00
77240;BME280;66258;53.170;-2.240;2023-11-21T06:57:31;101051.00;;;17.52;100.00
77240;BME280;66258;53.170;-2.240;2023-11-21T06:59:58;101058.16;;;17.68;100.00
77240;BME280;66258;53.170;-2.240;2023-11-21T07:02:26;101062.59;;;17.69;100.00
77240;BME280;66258;53.170;-2.240;2023-11-21T07:04:54;101077.19;;;17.76;100.00
77240;BME280;66258;53.170;-2.240;2023-11-21T07:07:22;101076.69;;;17.66;100.00
77240;BME280;66258;53.170;-2.240;2023-11-21T07:09:50;101085.44;;;17.62;100.00
77240;BME280;66258;53.170;-2.240;2023-11-21T07:12:17;101097.09;;;17.85;100.00
77240;BME280;66258;53.170;-2.240;2023-11-21T07:14:46;101114.41;;;17.85;100.00
77240;BME280;66258;53.170;-2.240;2023-11-21T07:17:14;101115.00;;;17.88;100.00
77240;BME280;66258;53.170;-2.240;2023-11-21T07:19:42;101135.66;;;17.83;100.00
77240;BME280;66258;53.170;-2.240;2023-11-21T07:22:13;101133.34;;;18.30;98.76
77240;BME280;66258;53.170;-2.240;2023-11-21T07:24:41;101139.03;;;18.28;98.72
77240;BME280;66258;53.170;-2.240;2023-11-21T07:27:09;101139.16;;;18.20;98.84
77240;BME280;66258;53.170;-2.240;2023-11-21T07:29:40;101144.72;;;18.05;98.69
77240;BME280;66258;53.170;-2.240;2023-11-21T07:32:09;101145.56;;;18.27;99.11
77240;BME280;66258;53.170;-2.240;2023-11-21T07:34:37;101152.94;;;18.27;98.31
77240;BME280;66258;53.170;-2.240;2023-11-21T07:37:04;101164.34;;;18.30;97.25
77240;BME280;66258;53.170;-2.240;2023-11-21T07:39:31;101169.38;;;18.48;96.65
77240;BME280;66258;53.170;-2.240;2023-11-21T07:41:59;101185.56;;;18.64;95.75
77240;BME280;66258;53.170;-2.240;2023-11-21T07:44:27;101186.06;;;18.32;95.87
77240;BME280;66258;53.170;-2.240;2023-11-21T07:46:55;101187.53;;;18.49;95.68
77240;BME280;66258;53.170;-2.240;2023-11-21T07:49:26;101193.25;;;18.54;95.86
77240;BME280;66258;53.170;-2.240;2023-11-21T07:51:54;101195.66;;;18.85;94.01
77240;BME280;66258;53.170;-2.240;2023-11-21T07:54:22;101203.16;;;18.76;94.14
77240;BME280;66258;53.170;-2.240;2023-11-21T07:56:50;101206.34;;;18.80;94.03
77240;BME280;66258;53.170;-2.240;2023-11-21T07:59:17;101207.00;;;18.82;93.34
77240;BME280;66258;53.170;-2.240;2023-11-21T08:01:44;101203.31;;;18.68;93.38
77240;BME280;66258;53.170;-2.240;2023-11-21T08:04:15;101209.38;;;18.42;93.60
77240;BME280;66258;53.170;-2.240;2023-11-21T08:06:44;101221.97;;;18.58;93.54
77240;BME280;66258;53.170;-2.240;2023-11-21T08:09:11;101229.03;;;18.25;95.34
77240;BME280;66258;53.170;-2.240;2023-11-21T08:11:39;101235.50;;;18.60;93.57
77240;BME280;66258;53.170;-2.240;2023-11-21T08:14:06;101246.69;;;18.01;95.11
77240;BME280;66258;53.170;-2.240;2023-11-21T08:16:34;101257.81;;;18.57;93.12
77240;BME280;66258;53.170;-2.240;2023-11-21T08:19:01;101261.31;;;18.50;93.09
77240;BME280;66258;53.170;-2.240;2023-11-21T08:21:28;101264.88;;;18.44;93.52
77240;BME280;66258;53.170;-2.240;2023-11-21T08:23:58;101267.72;;;18.36;94.07
77240;BME280;66258;53.170;-2.240;2023-11-21T08:26:26;101269.06;;;18.04;94.17
77240;BME280;66258;53.170;-2.240;2023-11-21T08:28:55;101266.47;;;18.17;94.71
77240;BME280;66258;53.170;-2.240;2023-11-21T08:31:25;101275.75;;;18.38;93.46
77240;BME280;66258;53.170;-2.240;2023-11-21T08:33:52;101275.06;;;18.14;94.07
77240;BME280;66258;53.170;-2.240;2023-11-21T08:36:19;101281.41;;;18.15;94.18
77240;BME280;66258;53.170;-2.240;2023-11-21T08:38:47;101282.69;;;18.55;92.68
77240;BME280;66258;53.170;-2.240;2023-11-21T08:41:16;101292.59;;;18.56;91.99
77240;BME280;66258;53.170;-2.240;2023-11-21T08:43:44;101299.53;;;18.52;91.30
77240;BME280;66258;53.170;-2.240;2023-11-21T08:46:11;101307.78;;;18.73;90.75
77240;BME280;66258;53.170;-2.240;2023-11-21T08:48:41;101304.97;;;18.45;91.55
77240;BME280;66258;53.170;-2.240;2023-11-21T08:51:10;101313.66;;;18.34;91.86
77240;BME280;66258;53.170;-2.240;2023-11-21T08:53:38;101303.94;;;18.32;91.56
77240;BME280;66258;53.170;-2.240;2023-11-21T08:56:06;101318.53;;;18.53;90.92
77240;BME280;66258;53.170;-2.240;2023-11-21T08:58:36;101327.13;;;18.50;90.85
77240;BME280;66258;53.170;-2.240;2023-11-21T09:01:04;101327.75;;;18.46;91.15
77240;BME280;66258;53.170;-2.240;2023-11-21T09:03:32;101323.59;;;18.35;90.91
77240;BME280;66258;53.170;-2.240;2023-11-21T09:06:00;101324.34;;;18.44;90.95
77240;BME280;66258;53.170;-2.240;2023-11-21T09:08:28;101330.47;;;18.61;90.54
77240;BME280;66258;53.170;-2.240;2023-11-21T09:10:55;101338.75;;;18.52;90.01
77240;BME280;66258;53.170;-2.240;2023-11-21T09:13:22;101340.22;;;18.48;90.14
77240;BME280;66258;53.170;-2.240;2023-11-21T09:15:52;101353.72;;;18.86;89.54
77240;BME280;66258;53.170;-2.240;2023-11-21T09:18:20;101350.97;;;18.86;88.37
77240;BME280;66258;53.170;-2.240;2023-11-21T09:20:46;101357.03;;;18.81;88.54
77240;BME280;66258;53.170;-2.240;2023-11-21T09:23:13;101350.78;;;18.66;88.62
77240;BME280;66258;53.170;-2.240;2023-11-21T09:25:41;101363.69;;;18.72;88.58
77240;BME280;66258;53.170;-2.240;2023-11-21T09:28:08;101358.91;;;18.60;89.31
77240;BME280;66258;53.170;-2.240;2023-11-21T09:30:35;101359.41;;;18.84;87.51
77240;BME280;66258;53.170;-2.240;2023-11-21T09:33:04;101355.03;;;18.69;88.09
77240;BME280;66258;53.170;-2.240;2023-11-21T09:35:31;101355.44;;;18.87;87.60
77240;BME280;66258;53.170;-2.240;2023-11-21T09:37:57;101360.75;;;18.74;87.57
77240;BME280;66258;53.170;-2.240;2023-11-21T09:40:24;101354.97;;;18.47;87.20
77240;BME280;66258;53.170;-2.240;2023-11-21T09:42:54;101365.94;;;18.47;88.49
77240;BME280;66258;53.170;-2.240;2023-11-21T09:45:25;101377.41;;;18.72;87.26
77240;BME280;66258;53.170;-2.240;2023-11-21T09:47:53;101375.34;;;18.96;86.54
77240;BME280;66258;53.170;-2.240;2023-11-21T09:50:23;101386.44;;;18.87;86.59
77240;BME280;66258;53.170;-2.240;2023-11-21T09:52:55;101390.56;;;18.98;86.28
77240;BME280;66258;53.170;-2.240;2023-11-21T09:55:27;101405.06;;;18.92;86.67
77240;BME280;66258;53.170;-2.240;2023-11-21T09:57:56;101408.41;;;19.09;86.40
77240;BME280;66258;53.170;-2.240;2023-11-21T10:00:23;101410.16;;;19.16;85.32
77240;BME280;66258;53.170;-2.240;2023-11-21T10:02:52;101415.66;;;19.16;85.55
77240;BME280;66258;53.170;-2.240;2023-11-21T10:05:19;101417.88;;;19.28;85.23
77240;BME280;66258;53.170;-2.240;2023-11-21T10:07:49;101432.78;;;19.18;84.94
77240;BME280;66258;53.170;-2.240;2023-11-21T10:10:19;101436.56;;;19.17;85.11
77240;BME280;66258;53.170;-2.240;2023-11-21T10:12:49;101435.91;;;19.37;84.90
77240;BME280;66258;53.170;-2.240;2023-11-21T10:15:17;101439.19;;;19.04;84.46
77240;BME280;66258;53.170;-2.240;2023-11-21T10:17:45;101447.94;;;19.36;84.31
77240;BME280;66258;53.170;-2.240;2023-11-21T10:20:16;101449.31;;;19.25;84.44
77240;BME280;66258;53.170;-2.240;2023-11-21T10:22:44;101460.00;;;18.99;84.07
77240;BME280;66258;53.170;-2.240;2023-11-21T10:25:13;101457.66;;;18.96;85.17
77240;BME280;66258;53.170;-2.240;2023-11-21T10:27:41;101455.72;;;19.11;84.46
77240;BME280;66258;53.170;-2.240;2023-11-21T10:30:08;101458.53;;;19.60;83.73
77240;BME280;66258;53.170;-2.240;2023-11-21T10:32:35;101460.00;;;19.84;83.01
77240;BME280;66258;53.170;-2.240;2023-11-21T10:35:03;101456.41;;;19.83;82.13
77240;BME280;66258;53.170;-2.240;2023-11-21T10:37:31;101458.66;;;19.73;81.02
77240;BME280;66258;53.170;-2.240;2023-11-21T10:39:59;101459.25;;;19.69;80.52
77240;BME280;66258;53.170;-2.240;2023-11-21T10:42:28;101462.66;;;19.71;79.96
77240;BME280;66258;53.170;-2.240;2023-11-21T10:44:55;101467.81;;;19.59;79.73
77240;BME280;66258;53.170;-2.240;2023-11-21T10:47:22;101466.50;;;19.55;78.88
77240;BME280;66258;53.170;-2.240;2023-11-21T10:49:50;101469.59;;;19.67;78.70
77240;BME280;66258;53.170;-2.240;2023-11-21T10:52:19;101466.09;;;20.07;78.22
77240;BME280;66258;53.170;-2.240;2023-11-21T10:54:46;101471.44;;;20.50;76.67
77240;BME280;66258;53.170;-2.240;2023-11-21T10:57:17;101463.84;;;20.58;74.75
77240;BME280;66258;53.170;-2.240;2023-11-21T10:59:47;101467.25;;;20.54;74.33
77240;BME280;66258;53.170;-2.240;2023-11-21T11:02:22;101454.31;;;20.20;74.04
77240;BME280;66258;53.170;-2.240;2023-11-21T11:04:52;101461.91;;;20.18;74.68
77240;BME280;66258;53.170;-2.240;2023-11-21T11:07:20;101458.78;;;20.62;74.64
77240;BME280;66258;53.170;-2.240;2023-11-21T11:09:48;101463.06;;;20.71;72.33
77240;BME280;66258;53.170;-2.240;2023-11-21T11:12:16;101463.88;;;21.19;70.77
77240;BME280;66258;53.170;-2.240;2023-11-21T11:14:43;101482.38;;;21.72;69.64
77240;BME280;66258;53.170;-2.240;2023-11-21T11:17:13;101483.63;;;21.63;67.33
77240;BME280;66258;53.170;-2.240;2023-11-21T11:19:40;101482.91;;;21.14;65.27
77240;BME280;66258;53.170;-2.240;2023-11-21T11:22:19;101490.44;;;21.80;66.50
77240;BME280;66258;53.170;-2.240;2023-11-21T11:25:06;101493.81;;;22.15;63.41
77240;BME280;66258;53.170;-2.240;2023-11-21T11:27:46;101490.59;;;22.38;61.88
77240;BME280;66258;53.170;-2.240;2023-11-21T11:30:26;101490.97;;;22.48;60.81
77240;BME280;66258;53.170;-2.240;2023-11-21T11:33:06;101468.75;;;22.29;60.09
77240;BME280;66258;53.170;-2.240;2023-11-21T11:35:47;101464.75;;;21.92;59.56
77240;BME280;66258;53.170;-2.240;2023-11-21T11:38:16;101471.78;;;21.75;59.86
77240;BME280;66258;53.170;-2.240;2023-11-21T11:40:45;101474.63;;;21.08;59.40
77240;BME280;66258;53.170;-2.240;2023-11-21T11:43:12;101475.03;;;20.16;62.18
77240;BME280;66258;53.170;-2.240;2023-11-21T11:45:40;101493.44;;;19.87;64.20
77240;BME280;66258;53.170;-2.240;2023-11-21T11:48:11;101491.75;;;19.65;65.04
77240;BME280;66258;53.170;-2.240;2023-11-21T11:50:42;101495.34;;;20.15;65.01
77240;BME280;66258;53.170;-2.240;2023-11-21T11:53:33;101496.06;;;20.65;64.65
77240;BME280;66258;53.170;-2.240;2023-11-21T11:56:22;101485.66;;;21.14;63.69
77240;BME280;66258;53.170;-2.240;2023-11-21T11:58:51;101481.94;;;21.61;61.16
77240;BME280;66258;53.170;-2.240;2023-11-21T12:01:18;101490.66;;;21.78;61.12
77240;BME280;66258;53.170;-2.240;2023-11-21T12:06:55;101514.41;;;22.06;57.28
77240;BME280;66258;53.170;-2.240;2023-11-21T12:09:22;101520.09;;;22.24;57.83
77240;BME280;66258;53.170;-2.240;2023-11-21T12:11:50;101513.81;;;22.75;55.37
77240;BME280;66258;53.170;-2.240;2023-11-21T12:14:17;101516.59;;;22.75;52.83
77240;BME280;66258;53.170;-2.240;2023-11-21T12:16:44;101517.03;;;22.85;53.43
77240;BME280;66258;53.170;-2.240;2023-11-21T12:19:13;101525.31;;;22.85;49.41
77240;BME280;66258;53.170;-2.240;2023-11-21T12:21:41;101527.69;;;22.55;49.30
77240;BME280;66258;53.170;-2.240;2023-11-21T12:24:08;101530.34;;;22.94;48.59
77240;BME280;66258;53.170;-2.240;2023-11-21T12:26:35;101533.66;;;23.16;47.87
77240;BME280;66258;53.170;-2.240;2023-11-21T12:29:02;101536.63;;;23.84;48.67
77240;BME280;66258;53.170;-2.240;2023-11-21T12:31:28;101539.34;;;24.41;46.92
77240;BME280;66258;53.170;-2.240;2023-11-21T12:33:56;101528.97;;;23.86;44.67
77240;BME280;66258;53.170;-2.240;2023-11-21T12:36:25;101519.41;;;23.13;44.10
77240;BME280;66258;53.170;-2.240;2023-11-21T12:38:52;101515.25;;;23.04;44.10
77240;BME280;66258;53.170;-2.240;2023-11-21T12:41:19;101533.88;;;23.15;44.88
77240;BME280;66258;53.170;-2.240;2023-11-21T12:43:46;101537.91;;;23.50;44.95
77240;BME280;66258;53.170;-2.240;2023-11-21T12:46:13;101549.91;;;24.01;44.67
77240;BME280;66258;53.170;-2.240;2023-11-21T12:48:41;101564.59;;;24.26;44.83